Time;durP1;ratioP1;P1;durP2;ratioP2;P2;SDS_P1;SDS_P2;PMS_P1;PMS_P2;Temp;Humidity;BMP_temperature;BMP_pressure;BME280_temperature;BME280_humidity;BME280_pressure;Samples;Min_cycle;Max_cycle;Signal;HPM_P1;HPM_P2
2022/05/29 08:32:26;;;;;;;0.30;0.30;;;22.00;50.40;;;21.43;34.72;94437.78;5084018;28;20223;-78
2022/05/29 08:34:53;;;;;;;0.40;0.40;;;21.90;49.20;;;21.05;35.06;94437.31;5048909;28;20210;-80
2022/05/29 08:37:21;;;;;;;0.43;0.43;;;21.70;48.80;;;20.69;35.02;94437.34;5048142;28;20251;-78
2022/05/29 08:39:48;;;;;;;0.40;0.40;;;21.50;48.80;;;20.44;35.33;94438.94;5050675;28;20195;-79
2022/05/29 08:42:19;;;;;;;0.40;0.40;;;21.30;48.90;;;20.21;35.93;94444.78;5052157;28;20207;-79
2022/05/29 08:44:50;;;;;;;0.40;0.40;;;21.10;49.40;;;20.06;35.37;94442.88;5068493;28;20179;-79
2022/05/29 08:47:27;;;;;;;0.43;0.43;;;20.90;49.40;;;19.94;36.03;94443.13;5048875;28;20216;-78
2022/05/29 08:50:02;;;;;;;0.30;0.30;;;20.80;49.70;;;19.91;35.71;94448.94;5044632;28;20214;-78
2022/05/29 08:52:50;;;;;;;0.40;0.40;;;20.70;49.80;;;19.89;36.04;94443.91;5031970;28;20682;-78
2022/05/29 08:55:49;;;;;;;0.40;0.40;;;20.60;49.80;;;19.96;36.40;94444.44;5024219;28;20191;-79
2022/05/29 08:58:33;;;;;;;0.40;0.40;;;20.70;50.70;;;20.10;36.57;94436.78;5046877;28;20622;-78
2022/05/29 09:01:29;;;;;;;0.50;0.50;;;20.70;50.50;;;20.28;36.36;94437.31;5069463;28;20222;-78
2022/05/29 09:04:06;;;;;;;0.50;0.50;;;20.80;50.70;;;20.42;35.96;94432.28;5068467;28;20198;-80
2022/05/29 09:06:51;;;;;;;0.40;0.40;;;20.80;50.30;;;20.56;35.90;94429.91;5012792;28;20207;-80
2022/05/29 09:09:44;;;;;;;0.40;0.40;;;20.90;50.50;;;20.58;35.59;94428.56;5047271;28;20217;-80
2022/05/29 09:12:28;;;;;;;0.30;0.30;;;21.00;50.00;;;20.60;35.53;94423.78;5060536;28;20218;-80
2022/05/29 09:15:16;;;;;;;0.30;0.30;;;21.10;50.10;;;20.58;35.73;94411.75;5065959;28;20199;-81
2022/05/29 09:17:52;;;;;;;0.30;0.30;;;21.10;50.10;;;20.51;35.32;94409.38;5069638;28;20307;-80
2022/05/29 09:20:37;;;;;;;0.30;0.30;;;21.10;50.00;;;20.43;35.89;94404.56;5040059;28;20278;-81
2022/05/29 09:23:08;;;;;;;0.47;0.47;;;21.00;50.00;;;20.42;35.84;94411.78;5031139;28;20626;-81
2022/05/29 09:25:42;;;;;;;0.50;0.50;;;21.00;50.30;;;20.45;35.71;94415.78;5047896;28;20212;-81
2022/05/29 09:28:18;;;;;;;0.47;0.47;;;20.90;50.30;;;20.48;35.84;94425.88;5047256;28;20772;-80
2022/05/29 09:30:46;;;;;;;0.40;0.40;;;20.90;50.10;;;20.53;35.81;94425.09;5047395;28;20177;-80
2022/05/29 09:33:18;;;;;;;0.40;0.40;;;20.90;50.10;;;20.56;35.65;94424.56;5046352;28;20238;-81
2022/05/29 09:35:57;;;;;;;0.40;0.40;;;20.90;50.00;;;20.60;35.51;94417.63;5043848;28;20292;-81
2022/05/29 09:38:35;;;;;;;0.40;0.40;;;20.90;49.90;;;20.63;35.15;94406.44;5068579;28;20219;-81
2022/05/29 09:41:19;;;;;;;0.50;0.50;;;21.00;50.10;;;20.67;35.30;94401.38;5066119;28;20685;-80
2022/05/29 09:44:07;;;;;;;0.40;0.40;;;21.00;49.90;;;20.66;34.79;94403.22;5046789;28;20205;-81
2022/05/29 09:46:40;;;;;;;0.40;0.40;;;21.00;49.50;;;20.60;34.79;94394.47;5049247;28;20726;-81
2022/05/29 09:52:13;;;;;;;0.50;0.50;;;20.90;48.40;;;20.39;34.46;94396.31;5019996;28;20214;-80
2022/05/29 09:54:55;;;;;;;0.40;0.40;;;20.80;48.60;;;20.27;35.02;94385.13;5033904;28;20281;-82
2022/05/29 09:57:30;;;;;;;0.40;0.40;;;20.70;48.80;;;20.21;34.97;94379.00;5049155;28;20219;-80
2022/05/29 10:00:14;;;;;;;0.55;0.55;;;20.70;49.20;;;20.23;35.12;94384.84;5020627;28;20193;-81
2022/05/29 10:02:47;;;;;;;0.40;0.40;;;20.60;49.40;;;20.22;34.91;94390.47;5043890;28;20319;-81
2022/05/29 10:05:28;;;;;;;0.68;0.68;;;20.60;49.50;;;20.18;35.30;94390.19;5042945;28;20685;-81
2022/05/29 10:07:59;;;;;;;0.40;0.40;;;20.50;49.40;;;20.20;34.83;94401.38;5033214;28;20278;-81
2022/05/29 10:10:26;;;;;;;0.40;0.40;;;20.50;49.50;;;20.18;35.04;94402.69;5017342;28;20617;-81
2022/05/29 10:12:57;;;;;;;0.40;0.40;;;20.50;49.60;;;20.12;34.67;94402.69;5048091;28;20216;-80
2022/05/29 10:15:24;;;;;;;0.40;0.40;;;20.40;49.10;;;20.04;34.96;94397.09;5020437;28;20187;-81
2022/05/29 10:17:54;;;;;;;0.50;0.50;;;20.40;49.30;;;19.93;35.23;94397.09;5036447;28;20211;-81
2022/05/29 10:20:37;;;;;;;0.40;0.40;;;20.30;49.30;;;19.86;35.45;94388.56;5018874;28;20205;-81
2022/05/29 10:23:29;;;;;;;0.40;0.40;;;20.20;49.80;;;19.80;35.70;94389.56;5019986;28;20701;-80
2022/05/29 10:26:23;;;;;;;0.50;0.50;;;20.20;50.30;;;19.75;35.88;94394.84;5034495;28;20311;-80
2022/05/29 10:28:50;;;;;;;0.50;0.50;;;20.10;50.00;;;19.68;35.50;94390.59;5039384;28;20230;-81
2022/05/29 10:31:30;;;;;;;0.40;0.40;;;20.10;49.90;;;19.62;35.66;94386.31;5024347;28;20211;-80
2022/05/29 10:34:07;;;;;;;0.40;0.40;;;20.00;50.10;;;19.59;35.87;94388.69;5056404;28;20675;-80
2022/05/29 10:36:37;;;;;;;0.45;0.45;;;19.90;50.20;;;19.55;36.16;94390.28;5054178;28;20222;-81
2022/05/29 10:39:21;;;;;;;0.50;0.50;;;19.90;50.50;;;19.51;35.84;94398.78;5018036;28;20772;-79
2022/05/29 10:41:50;;;;;;;0.40;0.40;;;19.80;50.50;;;19.48;36.18;94404.63;5017540;28;20576;-81
2022/05/29 10:44:40;;;;;;;0.50;0.50;;;19.80;50.60;;;19.39;35.63;94402.72;5024043;28;20191;-80
2022/05/29 10:47:16;;;;;;;0.40;0.40;;;19.80;49.60;;;19.29;34.96;94414.91;5035851;28;20223;-81
2022/05/29 10:50:21;;;;;;;0.47;0.47;;;19.70;49.40;;;19.18;35.08;94416.72;5031127;28;20294;-80
2022/05/29 10:53:21;;;;;;;0.40;0.40;;;19.60;49.60;;;19.08;35.35;94399.91;5003061;28;20219;-79
2022/05/29 10:56:09;;;;;;;0.40;0.40;;;19.50;49.70;;;19.00;35.74;94403.88;5032385;28;20207;-79
2022/05/29 10:59:26;;;;;;;0.40;0.40;;;19.40;49.90;;;18.88;35.78;94396.88;5049581;28;20215;-80
2022/05/29 11:05:54;;;;;;;0.32;0.32;;;19.20;50.10;;;18.85;36.45;94402.69;5048692;28;20211;-81
2022/05/29 11:08:52;;;;;;;0.43;0.43;;;19.20;50.30;;;18.88;36.15;94409.34;5061617;28;20597;-80
2022/05/29 11:11:40;;;;;;;0.40;0.40;;;19.20;50.40;;;18.87;35.67;94387.28;5050994;28;20268;-80
2022/05/29 11:14:28;;;;;;;0.45;0.45;;;19.20;50.20;;;18.91;35.81;94381.44;5052077;28;20245;-81
2022/05/29 11:17:13;;;;;;;0.40;0.40;;;19.10;50.30;;;18.98;35.56;94374.06;5058415;28;20219;-79
2022/05/29 11:20:39;;;;;;;0.40;0.40;;;19.20;50.30;;;19.06;35.88;94378.91;5040945;28;20237;-81
2022/05/29 11:23:32;;;;;;;0.40;0.40;;;19.20;50.50;;;19.12;35.79;94377.88;5019021;28;20219;-81
2022/05/29 11:26:23;;;;;;;0.40;0.40;;;19.30;50.00;;;19.12;35.62;94367.25;5015326;28;20214;-80
2022/05/29 11:29:31;;;;;;;0.40;0.40;;;19.40;49.70;;;19.13;35.48;94371.50;5015250;28;20235;-79
2022/05/29 11:33:02;;;;;;;0.43;0.43;;;19.40;50.00;;;19.18;35.67;94384.03;5018256;28;20283;-80
2022/05/29 11:36:02;;;;;;;0.40;0.40;;;19.40;50.20;;;19.25;35.77;94383.78;5035199;28;20234;-79
2022/05/29 11:39:05;;;;;;;0.40;0.40;;;19.40;50.10;;;19.25;35.42;94383.78;5032416;28;20204;-80
2022/05/29 11:42:02;;;;;;;0.40;0.40;;;19.50;49.90;;;19.32;35.60;94389.66;5041648;28;20231;-80
2022/05/29 11:44:54;;;;;;;0.40;0.40;;;19.50;49.80;;;19.31;35.30;94378.25;5030041;28;20258;-80
2022/05/29 11:51:08;;;;;;;0.50;0.50;;;19.50;49.60;;;19.29;35.56;94363.59;5052764;28;20604;-80
2022/05/29 11:53:49;;;;;;;0.50;0.50;;;19.50;49.60;;;19.31;35.18;94375.56;5049390;28;20203;-80
2022/05/29 11:56:36;;;;;;;0.40;0.40;;;19.50;50.20;;;19.35;35.55;94363.34;5048952;28;20222;-79
2022/05/29 11:59:55;;;;;;;0.40;0.40;;;19.60;50.30;;;19.44;35.45;94362.84;5033946;28;20209;-80
2022/05/29 12:02:56;;;;;;;0.32;0.32;;;19.60;50.00;;;19.51;35.60;94356.22;5037492;28;20227;-80
2022/05/29 12:05:29;;;;;;;0.40;0.40;;;19.70;50.20;;;19.56;35.80;94352.00;5037288;28;20212;-80
2022/05/29 12:08:57;;;;;;;0.40;0.40;;;19.80;50.70;;;19.52;35.85;94328.56;5034551;28;20221;-80
2022/05/29 12:11:43;;;;;;;0.50;0.50;;;19.70;50.40;;;19.48;35.71;94332.00;5028101;28;20251;-80
2022/05/29 12:14:23;;;;;;;0.40;0.40;;;19.80;50.40;;;19.39;35.76;94347.66;5014839;28;20249;-80
2022/05/29 12:17:11;;;;;;;0.47;0.47;;;19.70;50.40;;;19.28;36.01;94343.38;5047704;28;20222;-80
2022/05/29 12:19:54;;;;;;;0.40;0.40;;;19.60;50.00;;;19.18;35.77;94346.81;5014995;28;20266;-81
2022/05/29 12:22:31;;;;;;;0.40;0.40;;;19.60;50.10;;;19.09;35.72;94341.19;5030870;28;20239;-79
2022/05/29 12:24:58;;;;;;;0.45;0.45;;;19.50;50.20;;;19.06;35.88;94336.38;5035291;28;20290;-80
2022/05/29 12:27:28;;;;;;;0.40;0.40;;;19.40;50.50;;;19.09;36.27;94335.06;5033389;28;20219;-80
2022/05/29 12:30:11;;;;;;;0.40;0.40;;;19.40;50.80;;;19.12;36.42;94327.38;5031651;28;20690;-81
2022/05/29 12:32:38;;;;;;;0.50;0.50;;;19.40;51.00;;;19.16;36.27;94322.34;5017005;28;20778;-80
2022/05/29 12:35:35;;;;;;;0.40;0.40;;;19.40;51.00;;;19.23;36.05;94343.38;5050440;28;20274;-79
2022/05/29 12:38:24;;;;;;;0.40;0.40;;;19.40;51.00;;;19.19;35.90;94338.56;5033303;28;20219;-79
2022/05/29 12:41:19;;;;;;;0.50;0.50;;;19.40;50.90;;;19.04;36.80;94341.97;5017813;28;20195;-81
2022/05/29 12:44:24;;;;;;;0.43;0.43;;;19.40;51.20;;;18.71;37.58;94349.19;5030937;28;20210;-81
2022/05/29 12:47:13;;;;;;;0.55;0.55;;;19.20;51.40;;;18.28;38.83;94359.00;5047562;28;20741;-81
2022/05/29 12:49:56;;;;;;;0.50;0.50;;;18.90;52.20;;;17.77;41.08;94357.47;5034354;28;20325;-80
2022/05/29 12:52:49;;;;;;;0.50;0.50;;;18.70;54.30;;;17.13;41.38;94358.09;5016616;28;20250;-80
2022/05/29 12:55:41;;;;;;;0.50;0.50;;;18.20;54.70;;;16.63;41.95;94365.88;5065720;28;20184;-79
2022/05/29 12:58:44;;;;;;;0.50;0.50;;;17.70;55.10;;;16.18;42.30;94380.03;5033896;28;20306;-80
2022/05/29 13:01:30;;;;;;;0.60;0.60;;;17.30;55.00;;;15.79;43.53;94385.16;5031838;28;20199;-80
2022/05/29 13:04:31;;;;;;;0.50;0.50;;;16.80;56.90;;;15.49;43.66;94379.06;5046799;28;20203;-80
2022/05/29 13:07:22;;;;;;;0.50;0.50;;;16.40;56.70;;;15.20;44.32;94381.66;5031141;28;20223;-80
2022/05/29 13:10:01;;;;;;;0.73;0.73;;;16.10;57.30;;;15.01;44.91;94375.75;5030497;28;20223;-81
2022/05/29 13:12:48;;;;;;;0.60;0.60;;;15.80;58.20;;;14.79;46.62;94374.75;5043806;28;20218;-80
2022/05/29 13:15:37;;;;;;;0.70;0.70;;;15.60;60.00;;;14.58;46.88;94379.53;5039486;28;20198;-80
2022/05/29 13:18:47;;;;;;;0.52;0.52;;;15.30;59.70;;;14.43;47.17;94389.75;5038815;28;20256;-79
2022/05/29 13:21:18;;;;;;;0.60;0.60;;;15.10;60.60;;;14.24;47.84;94393.31;5019359;28;20211;-79
2022/05/29 13:23:53;;;;;;;0.50;0.50;;;14.90;60.30;;;14.08;48.96;94400.00;5034720;28;20298;-80
2022/05/29 13:26:27;;;;;;;0.60;0.60;;;14.70;60.80;;;13.91;50.70;94399.88;5049070;28;20220;-79
2022/05/29 13:29:09;;;;;;;0.60;0.60;;;14.50;62.10;;;13.73;51.05;94406.00;5047414;28;20250;-80
2022/05/29 13:32:14;;;;;;;0.65;0.65;;;14.40;62.70;;;13.55;50.69;94398.94;5030535;28;20315;-80
2022/05/29 13:34:50;;;;;;;0.60;0.60;;;14.20;62.20;;;13.47;50.27;94401.09;5033908;28;20203;-80
2022/05/29 13:37:32;;;;;;;0.60;0.60;;;14.00;62.60;;;13.38;51.22;94397.97;5032787;28;20216;-80
2022/05/29 13:40:06;;;;;;;0.60;0.60;;;13.90;62.70;;;13.34;51.59;94391.47;5048924;28;20200;-79
2022/05/29 13:42:54;;;;;;;0.60;0.60;;;13.80;63.80;;;13.32;51.38;94396.97;5045328;28;20223;-80
2022/05/29 13:45:24;;;;;;;0.50;0.50;;;13.70;64.10;;;13.30;51.59;94396.38;5038344;28;20198;-80
2022/05/29 13:48:12;;;;;;;0.60;0.60;;;13.60;63.80;;;13.28;51.45;94401.88;5038157;28;20226;-80
2022/05/29 13:50:39;;;;;;;0.60;0.60;;;13.60;64.10;;;13.29;51.01;94395.59;5040537;28;20566;-81
2022/05/29 13:53:48;;;;;;;0.60;0.60;;;13.60;63.70;;;13.25;51.59;94402.31;5048999;28;20215;-81
2022/05/29 13:56:20;;;;;;;0.80;0.80;;;13.50;63.60;;;13.25;51.67;94409.41;5034609;28;20586;-80
2022/05/29 14:04:55;;;;;;;0.60;0.60;;;13.50;63.90;;;13.21;50.61;94401.16;5030432;28;20210;-81
2022/05/29 14:07:33;;;;;;;0.70;0.70;;;13.40;64.30;;;13.27;50.81;94397.63;5057003;28;20203;-80
2022/05/29 14:10:18;;;;;;;0.60;0.60;;;13.40;64.70;;;13.40;50.09;94401.16;5056660;28;20577;-81
2022/05/29 14:13:36;;;;;;;0.60;0.60;;;13.50;64.40;;;13.52;49.89;94401.22;5039885;28;20632;-80
2022/05/29 14:16:29;;;;;;;0.70;0.70;;;13.50;64.00;;;13.64;49.77;94390.75;5004404;28;20571;-80
2022/05/29 14:19:15;;;;;;;0.60;0.60;;;13.60;64.30;;;13.75;49.76;94395.25;5047035;28;20254;-81
2022/05/29 14:21:51;;;;;;;0.60;0.60;;;13.70;64.50;;;13.90;49.45;94403.53;5032672;28;20298;-80
2022/05/29 14:24:51;;;;;;;0.60;0.60;;;13.80;63.80;;;14.05;49.19;94404.97;5047904;28;20210;-80
2022/05/29 14:27:34;;;;;;;0.60;0.60;;;13.90;64.30;;;14.22;48.98;94394.53;5032902;28;20223;-79
2022/05/29 14:30:13;;;;;;;0.70;0.70;;;14.00;64.20;;;14.35;49.61;94396.97;5019926;28;20562;-81
2022/05/29 14:33:10;;;;;;;0.60;0.60;;;14.20;64.50;;;14.49;49.10;94389.66;5039143;28;20553;-80
2022/05/29 14:35:52;;;;;;;0.70;0.70;;;14.30;64.40;;;14.60;49.19;94379.31;5032318;28;20198;-79
2022/05/29 14:38:25;;;;;;;0.60;0.60;;;14.40;63.90;;;14.66;49.54;94376.59;5027769;28;20723;-80
2022/05/29 14:40:55;;;;;;;0.50;0.50;;;14.60;64.00;;;14.75;49.23;94371.75;5022382;28;20297;-80
2022/05/29 14:43:29;;;;;;;0.60;0.60;;;14.70;63.80;;;14.82;49.23;94363.75;5019525;28;20222;-81
2022/05/29 14:46:21;;;;;;;0.50;0.50;;;14.80;64.20;;;14.91;49.10;94364.97;5019604;28;20556;-80
2022/05/29 14:49:14;;;;;;;0.60;0.60;;;14.90;63.60;;;15.01;49.25;94370.47;5020350;28;20191;-82
2022/05/29 14:51:54;;;;;;;0.60;0.60;;;15.10;64.60;;;15.08;49.64;94382.75;5014096;28;20232;-81
2022/05/29 14:54:28;;;;;;;0.50;0.50;;;15.10;64.10;;;15.11;49.78;94379.63;5032198;28;20192;-80
2022/05/29 14:57:00;;;;;;;0.70;0.70;;;15.20;63.70;;;15.14;49.29;94389.75;5025457;28;20219;-82
2022/05/29 14:59:38;;;;;;;0.60;0.60;;;15.20;63.60;;;15.12;49.38;94387.31;5036519;28;20298;-80
2022/05/29 15:02:20;;;;;;;0.80;0.80;;;15.30;63.50;;;15.11;48.98;94390.19;5052523;28;20716;-81
2022/05/29 15:04:50;;;;;;;0.70;0.70;;;15.20;63.50;;;15.08;49.30;94395.97;5048723;28;20204;-82
2022/05/29 15:10:31;;;;;;;0.50;0.50;;;15.20;63.50;;;15.06;48.96;94390.88;5038216;28;20265;-82
2022/05/29 15:13:56;;;;;;;0.70;0.70;;;15.20;63.50;;;15.03;49.02;94394.00;5048325;28;20219;-81
2022/05/29 15:16:30;;;;;;;0.60;0.60;;;15.20;63.40;;;15.04;48.76;94390.34;5015845;28;20224;-81
2022/05/29 15:19:15;;;;;;;0.40;0.40;;;15.20;63.30;;;15.05;48.75;94386.66;5033467;28;20294;-81
2022/05/29 15:24:45;;;;;;;0.50;0.50;;;15.10;63.40;;;15.02;49.39;94377.34;5051358;28;20189;-80
2022/05/29 15:27:17;;;;;;;0.70;0.70;;;15.20;63.30;;;14.96;49.14;94362.44;5018408;28;20592;-81
2022/05/29 15:29:52;;;;;;;0.60;0.60;;;15.20;63.60;;;14.99;49.15;94361.16;5034836;28;20210;-81
2022/05/29 15:32:29;;;;;;;0.73;0.73;;;15.20;63.40;;;14.97;49.19;94358.75;5050243;28;20215;-81
2022/05/29 15:35:42;;;;;;;0.50;0.50;;;15.10;63.70;;;14.96;49.07;94351.06;5035515;28;20194;-82
2022/05/29 15:38:21;;;;;;;0.60;0.60;;;15.20;63.80;;;14.99;49.10;94356.69;5029109;28;20309;-82
2022/05/29 15:41:03;;;;;;;0.40;0.40;;;15.10;63.50;;;14.96;48.96;94343.94;5055356;28;20189;-81
2022/05/29 15:43:55;;;;;;;0.70;0.70;;;15.20;63.60;;;14.99;49.19;94353.22;5043883;28;20268;-81
2022/05/29 15:46:58;;;;;;;0.50;0.50;;;15.10;63.80;;;14.98;49.03;94352.44;5018709;28;20266;-80
2022/05/29 15:49:54;;;;;;;0.50;0.50;;;15.20;63.90;;;14.98;49.08;94359.56;5038034;28;20218;-80
2022/05/29 15:52:36;;;;;;;0.50;0.50;;;15.10;64.00;;;14.95;49.08;94354.75;5059333;28;20701;-80
2022/05/29 15:55:25;;;;;;;0.68;0.68;;;15.10;63.80;;;14.95;49.04;94363.50;5051746;28;20263;-80
2022/05/29 15:58:12;;;;;;;0.55;0.55;;;15.10;64.00;;;14.95;49.22;94367.94;5014785;28;20228;-81
2022/05/29 16:01:03;;;;;;;0.70;0.70;;;15.10;63.60;;;14.89;49.11;94362.56;5015350;28;20299;-82
2022/05/29 16:03:32;;;;;;;0.80;0.80;;;15.10;63.70;;;14.83;49.32;94362.69;5028321;28;20678;-81
2022/05/29 16:06:19;;;;;;;0.52;0.52;;;15.00;63.60;;;14.80;49.30;94371.88;5031075;28;20196;-79
2022/05/29 16:08:59;;;;;;;0.70;0.70;;;15.00;63.80;;;14.76;49.31;94367.28;5017051;28;20235;-82
2022/05/29 16:11:52;;;;;;;0.47;0.47;;;14.90;64.10;;;14.70;49.45;94361.09;5034950;28;20223;-80
2022/05/29 16:14:35;;;;;;;0.70;0.70;;;14.90;64.00;;;14.68;49.34;94358.69;5017478;28;20670;-80
2022/05/29 16:17:32;;;;;;;0.50;0.50;;;14.80;63.80;;;14.66;49.27;94367.84;5051355;28;20255;-80
2022/05/29 16:20:20;;;;;;;0.70;0.70;;;14.80;63.90;;;14.61;49.15;94362.44;5037035;28;20226;-80
2022/05/29 16:23:19;;;;;;;0.80;0.80;;;14.80;63.70;;;14.57;49.43;94362.09;5050260;28;20237;-80
2022/05/29 16:25:59;;;;;;;0.52;0.52;;;14.80;64.30;;;14.56;49.62;94361.31;5026598;28;20199;-80
2022/05/29 16:29:00;;;;;;;0.50;0.50;;;14.70;64.30;;;14.55;49.47;94366.81;5050877;28;20242;-79
2022/05/29 16:31:43;;;;;;;0.50;0.50;;;14.70;64.60;;;14.52;49.44;94378.63;5043659;28;20667;-79
2022/05/29 16:34:24;;;;;;;0.55;0.55;;;14.70;64.60;;;14.50;49.45;94378.06;4982216;28;20207;-81
2022/05/29 16:49:00;;;;;;;0.50;0.50;;;14.50;64.30;;;14.30;49.46;94393.41;5017077;28;20204;-80
2022/05/29 16:51:57;;;;;;;0.70;0.70;;;14.40;64.60;;;14.27;49.63;94396.50;5031076;28;20364;-79
2022/05/29 16:55:16;;;;;;;0.70;0.70;;;14.40;64.50;;;14.19;49.78;94393.16;5046428;28;20654;-80
2022/05/29 16:57:53;;;;;;;0.50;0.50;;;14.30;64.20;;;14.14;49.88;94384.34;5034332;28;20220;-80
2022/05/29 17:00:23;;;;;;;0.80;0.80;;;14.30;64.50;;;14.13;49.58;94395.91;5054555;28;20657;-81
2022/05/29 17:03:18;;;;;;;0.57;0.57;;;14.30;64.40;;;14.09;49.95;94392.94;5071352;28;20215;-81
2022/05/29 17:05:50;;;;;;;0.70;0.70;;;14.20;64.80;;;14.05;49.80;94387.28;5034990;28;20191;-80
2022/05/29 17:08:39;;;;;;;0.60;0.60;;;14.20;64.70;;;14.02;50.04;94392.22;5012472;28;20575;-80
2022/05/29 17:11:18;;;;;;;0.60;0.60;;;14.20;65.00;;;14.01;49.88;94390.59;5019146;28;20235;-81
2022/05/29 17:13:46;;;;;;;0.70;0.70;;;14.10;64.80;;;14.00;50.07;94392.44;5054840;28;20611;-81
2022/05/29 17:16:18;;;;;;;0.50;0.50;;;14.10;64.30;;;13.97;49.85;94390.25;5030662;28;20688;-81
2022/05/29 17:18:47;;;;;;;0.50;0.50;;;14.00;64.40;;;13.95;49.99;94384.41;5033807;28;20219;-80
2022/05/29 17:21:22;;;;;;;0.57;0.57;;;14.00;64.70;;;13.92;49.96;94393.56;5018129;28;20196;-80
2022/05/29 17:24:37;;;;;;;0.50;0.50;;;14.00;65.10;;;13.90;50.06;94386.91;5051242;28;20654;-80
2022/05/29 17:27:33;;;;;;;0.52;0.52;;;14.00;65.50;;;13.89;50.15;94390.56;5020278;28;20220;-79
2022/05/29 17:30:16;;;;;;;0.60;0.60;;;14.00;65.30;;;13.88;50.28;94392.41;5046940;28;20220;-80
2022/05/29 17:33:05;;;;;;;0.50;0.50;;;13.90;64.80;;;13.86;50.17;94396.31;5055503;28;20284;-79
2022/05/29 17:35:41;;;;;;;0.65;0.65;;;13.90;65.10;;;13.84;50.18;94393.91;5055278;28;20273;-80
2022/05/29 17:38:43;;;;;;;0.70;0.70;;;13.90;65.00;;;13.84;50.22;94390.44;5059464;28;20195;-79
2022/05/29 17:41:11;;;;;;;0.60;0.60;;;13.80;65.10;;;13.84;50.29;94393.91;5017543;28;20295;-79
2022/05/29 17:43:38;;;;;;;0.50;0.50;;;13.90;65.00;;;13.82;50.43;94397.75;5049667;28;20257;-81
2022/05/29 17:46:16;;;;;;;0.50;0.50;;;13.80;65.00;;;13.83;50.63;94402.84;5020845;28;20202;-80
2022/05/29 17:49:12;;;;;;;0.60;0.60;;;13.90;65.50;;;13.77;50.39;94401.88;5053977;28;20218;-80
2022/05/29 17:52:01;;;;;;;0.60;0.60;;;13.80;65.50;;;13.76;50.47;94408.19;5045093;28;20222;-80
2022/05/29 17:54:47;;;;;;;0.60;0.60;;;13.80;65.60;;;13.73;50.58;94392.84;5020318;28;20207;-80
2022/05/29 17:57:30;;;;;;;0.70;0.70;;;13.80;65.50;;;13.71;51.01;94400.16;5042275;28;20311;-80
2022/05/29 17:59:57;;;;;;;0.70;0.70;;;13.90;65.80;;;13.71;50.64;94396.72;5045177;28;20630;-79
2022/05/29 18:02:28;;;;;;;0.60;0.60;;;13.80;65.20;;;13.71;50.99;94394.09;5015994;28;20208;-80
2022/05/29 18:04:59;;;;;;;0.50;0.50;;;13.70;65.50;;;13.70;50.79;94389.84;5035600;28;20199;-79
2022/05/29 18:07:26;;;;;;;0.60;0.60;;;13.70;65.40;;;13.68;50.88;94395.31;5052488;28;20203;-79
2022/05/29 18:09:53;;;;;;;0.57;0.57;;;13.70;65.20;;;13.68;50.59;94390.03;5036143;28;20709;-80
2022/05/29 18:12:24;;;;;;;0.50;0.50;;;13.70;65.50;;;13.67;51.13;94385.81;5017640;28;20214;-80
2022/05/29 18:14:52;;;;;;;0.70;0.70;;;13.80;65.70;;;13.65;51.13;94377.31;5055589;28;20194;-80
2022/05/29 18:17:19;;;;;;;0.60;0.60;;;13.70;65.70;;;13.63;51.13;94378.59;5034577;28;20223;-79
2022/05/29 18:19:47;;;;;;;0.50;0.50;;;13.70;65.70;;;13.60;51.33;94380.63;5035978;28;20205;-80
2022/05/29 18:22:14;;;;;;;0.50;0.50;;;13.70;65.90;;;13.52;51.55;94375.66;5034793;28;20685;-80
2022/05/29 18:24:41;;;;;;;0.55;0.55;;;13.70;65.80;;;13.54;51.34;94386.78;5035863;28;20220;-80
2022/05/29 18:27:12;;;;;;;0.60;0.60;;;13.60;65.70;;;13.50;51.51;94380.38;5018859;28;20212;-79
2022/05/29 18:29:41;;;;;;;0.60;0.60;;;13.70;66.10;;;13.53;51.37;94385.19;5019704;28;20202;-79
2022/05/29 18:32:09;;;;;;;0.50;0.50;;;13.60;65.90;;;13.48;51.66;94382.41;5034027;28;20219;-80
2022/05/29 18:34:37;;;;;;;0.60;0.60;;;13.60;66.00;;;13.48;51.52;94385.06;5036239;28;20204;-80
2022/05/29 18:37:05;;;;;;;0.60;0.60;;;13.60;66.10;;;13.50;51.68;94384.81;5019593;28;20215;-80
2022/05/29 18:39:32;;;;;;;0.60;0.60;;;13.60;66.00;;;13.48;51.72;94387.69;5035425;28;20192;-79
2022/05/29 18:41:59;;;;;;;0.80;0.80;;;13.70;66.30;;;13.45;51.79;94383.66;5022397;28;20219;-79
2022/05/29 18:44:27;;;;;;;0.60;0.60;;;13.50;66.10;;;13.46;51.88;94392.38;5035035;28;20287;-80
2022/05/29 18:46:58;;;;;;;0.50;0.50;;;13.50;66.20;;;13.45;51.94;94388.13;5023901;28;20223;-79
2022/05/29 18:49:28;;;;;;;0.80;0.80;;;13.50;66.60;;;13.44;51.79;94397.88;5022579;28;20207;-80
2022/05/29 18:51:57;;;;;;;0.60;0.60;;;13.60;66.40;;;13.43;51.98;94400.72;5048596;28;20300;-79
2022/05/29 18:54:25;;;;;;;0.50;0.50;;;13.50;66.30;;;13.42;52.07;94399.91;5022892;28;20195;-80
2022/05/29 18:56:52;;;;;;;0.60;0.60;;;13.50;66.30;;;13.42;51.98;94402.53;5017733;28;20215;-79
2022/05/29 18:59:19;;;;;;;0.60;0.60;;;13.50;66.30;;;13.40;51.92;94399.34;5053685;28;20187;-79
2022/05/29 19:01:46;;;;;;;0.50;0.50;;;13.50;66.30;;;13.32;51.87;94390.88;5038290;28;20221;-79
2022/05/29 19:04:14;;;;;;;0.50;0.50;;;13.50;66.40;;;13.37;51.83;94397.13;5020935;28;20203;-80
2022/05/29 19:06:45;;;;;;;0.50;0.50;;;13.50;66.40;;;13.37;51.99;94405.00;5017342;28;20223;-80
2022/05/29 19:09:12;;;;;;;0.60;0.60;;;13.40;66.40;;;13.34;51.92;94408.09;5015885;28;20192;-80
2022/05/29 19:11:42;;;;;;;0.60;0.60;;;13.50;66.50;;;13.35;52.02;94414.16;5033383;28;20696;-79
2022/05/29 19:14:09;;;;;;;0.60;0.60;;;13.40;66.50;;;13.30;52.05;94401.66;5017304;28;20214;-80
2022/05/29 19:16:36;;;;;;;0.60;0.60;;;13.40;66.70;;;13.30;52.12;94401.66;5023681;28;20230;-79
2022/05/29 19:19:04;;;;;;;0.60;0.60;;;13.30;66.50;;;13.27;51.96;94405.53;5034831;28;20191;-79
2022/05/29 19:21:32;;;;;;;0.50;0.50;;;13.30;66.50;;;13.25;52.35;94412.84;5034267;28;20265;-79
2022/05/29 19:24:00;;;;;;;0.50;0.50;;;13.30;66.50;;;13.23;52.44;94406.19;5017080;28;20208;-80
2022/05/29 19:26:31;;;;;;;0.50;0.50;;;13.40;66.70;;;13.20;52.35;94412.72;5018167;28;20313;-80
2022/05/29 19:28:58;;;;;;;0.50;0.50;;;13.30;66.90;;;13.20;52.54;94417.97;5018524;28;20241;-79
2022/05/29 19:31:40;;;;;;;0.52;0.52;;;13.30;66.80;;;13.16;52.55;94414.19;5029170;28;20840;-79
2022/05/29 19:34:07;;;;;;;0.70;0.70;;;13.30;68.40;;;13.15;52.42;94417.84;5015756;28;20629;-79
2022/05/29 19:36:36;;;;;;;0.80;0.80;;;13.40;66.90;;;13.16;52.33;94416.00;5033898;28;20241;-79
2022/05/29 19:39:05;;;;;;;0.55;0.55;;;13.20;66.90;;;13.15;52.56;94420.47;5044567;28;20211;-79
2022/05/29 19:41:32;;;;;;;0.50;0.50;;;13.20;66.90;;;13.15;52.52;94409.16;5030242;28;20223;-79
2022/05/29 19:44:01;;;;;;;0.50;0.50;;;13.20;66.90;;;13.12;52.70;94407.72;5014365;28;20196;-79
2022/05/29 19:46:30;;;;;;;0.60;0.60;;;13.20;67.20;;;13.11;52.47;94408.78;5024650;28;20707;-79
2022/05/29 19:49:01;;;;;;;0.60;0.60;;;13.20;67.20;;;13.08;52.59;94402.09;5030817;28;20207;-79
2022/05/29 19:51:30;;;;;;;0.50;0.50;;;13.20;67.20;;;13.10;52.76;94409.81;5012240;28;20454;-78
2022/05/29 19:53:58;;;;;;;0.60;0.60;;;13.20;67.20;;;13.08;53.07;94402.09;5023338;28;20215;-79
2022/05/29 19:56:26;;;;;;;0.60;0.60;;;13.20;67.20;;;13.09;53.08;94403.72;5035185;28;20269;-79
2022/05/29 19:58:54;;;;;;;0.60;0.60;;;13.20;67.40;;;13.08;53.19;94407.38;5043051;28;20204;-79
2022/05/29 20:01:28;;;;;;;0.60;0.60;;;13.20;67.30;;;13.06;52.97;94404.16;5052663;28;20300;-79
2022/05/29 20:03:57;;;;;;;0.60;0.60;;;13.20;67.70;;;13.05;53.02;94401.72;5015320;28;20568;-79
2022/05/29 20:06:35;;;;;;;0.60;0.60;;;13.10;67.30;;;13.00;52.91;94393.69;5034469;28;20277;-79
2022/05/29 20:09:06;;;;;;;0.50;0.50;;;13.10;67.70;;;13.00;52.90;94391.06;5034075;28;20302;-79
2022/05/29 20:11:41;;;;;;;0.60;0.60;;;13.10;68.40;;;13.00;53.24;94402.41;5027671;28;20281;-79
2022/05/29 20:14:15;;;;;;;0.52;0.52;;;13.10;68.50;;;13.00;52.99;94397.16;5054289;28;20328;-80
2022/05/29 20:16:51;;;;;;;0.55;0.55;;;13.20;67.50;;;13.00;52.56;94399.78;5027270;28;20693;-79
2022/05/29 20:19:19;;;;;;;0.60;0.60;;;13.10;67.80;;;13.01;53.17;94403.19;5002519;28;20585;-79
2022/05/29 20:21:46;;;;;;;0.60;0.60;;;13.10;67.50;;;13.00;53.46;94396.31;5033979;28;20211;-79
2022/05/29 20:24:16;;;;;;;0.60;0.60;;;13.20;67.60;;;13.01;53.16;94404.03;5017679;28;20210;-79